Overview Statistics Trail Chart Weather Telemetry Raw packets
 

This is the latest recevied weather packets stored in our database for station/object SV3AQT-13. If no packets are shown the sender has not sent any weather packets the latest 10 day(s).

<< 6 7 8 9 10 11 12 >>
Time Temp. Humidity Pressure Rain* Wind** Luminosity Snow
1788581824 20° C 65% 1019.3 hPa 0 mm 0 m/s - -
1788581643 20° C 66% 1019.3 hPa 0 mm 0 m/s - -
1788581462 19.44° C 67% 1019.3 hPa 0 mm 0 m/s - -
1788581282 19.44° C 68% 1019.3 hPa 0 mm 0 m/s - -
1788581102 18.89° C 68% 1019.3 hPa 0 mm 0 m/s - -
1788580922 18.33° C 71% 1019.3 hPa 0 mm 0 m/s - -
1788580743 18.33° C 71% 1018.9 hPa 0 mm 0 m/s - -
1788580563 18.89° C 69% 1018.9 hPa 0 mm 0 m/s - -
1788580383 18.33° C 71% 1018.9 hPa 0 mm 0 m/s - -
1788580201 18.33° C 71% 1018.9 hPa 0 mm 0 m/s - -
1788580022 18.33° C 72% 1018.9 hPa 0 mm 0 m/s - -
1788579841 18.33° C 72% 1018.9 hPa 0 mm 0 m/s - -
1788579663 18.33° C 72% 1018.9 hPa 0 mm 0 m/s - -
1788579484 17.78° C 74% 1018.9 hPa 0 mm 0 m/s - -
1788579302 17.78° C 75% 1018.9 hPa 0 mm 0 m/s - -
1788579121 18.33° C 74% 1018.9 hPa 0 mm 0 m/s - -
1788578942 18.33° C 73% 1018.9 hPa 0 mm 0 m/s - -
1788578762 17.78° C 75% 1018.9 hPa 0 mm 0 m/s - -
1788578582 17.78° C 74% 1018.9 hPa 0 mm 0 m/s - -
1788578403 17.78° C 75% 1018.9 hPa 0 mm 0 m/s - -
1788578221 17.78° C 74% 1018.9 hPa 0 mm 0 m/s - -
1788578042 17.78° C 74% 1018.9 hPa 0 mm 0 m/s - -
1788577861 17.78° C 74% 1018.9 hPa 0 mm 0 m/s - -
1788577682 17.78° C 74% 1018.9 hPa 0 mm 0 m/s - -
1788577502 17.78° C 75% 1018.9 hPa 0 mm 0 m/s - -

* Rain latest hour (hover to see other rain measurements)
** Current wind speed in m/s (hover to see current wind gust speed)